createdAt,value
2022-10-17T00:01:36.662Z,41.83
2022-10-17T00:04:03.677Z,44.53
2022-10-17T00:06:30.685Z,43.65
2022-10-17T00:08:57.657Z,46.20
2022-10-17T00:11:24.951Z,51.58
2022-10-17T00:13:54.985Z,47.97
2022-10-17T00:16:34.131Z,45.90
2022-10-17T00:19:01.090Z,47.08
2022-10-17T00:21:28.014Z,47.13
2022-10-17T00:23:55.310Z,47.30
2022-10-17T00:26:22.311Z,46.92
2022-10-17T00:28:50.810Z,47.13
2022-10-17T00:31:19.872Z,48.30
2022-10-17T00:33:47.764Z,47.65
2022-10-17T00:36:20.047Z,50.53
2022-10-17T00:38:50.561Z,47.83
2022-10-17T00:41:19.751Z,48.55
2022-10-17T00:44:06.875Z,52.50
2022-10-17T00:46:38.863Z,49.70
2022-10-17T00:49:10.270Z,49.97
2022-10-17T00:51:46.865Z,51.20
2022-10-17T00:54:16.169Z,50.30
2022-10-17T00:56:44.924Z,48.85
2022-10-17T00:59:13.691Z,51.85
2022-10-17T01:01:42.649Z,46.55
2022-10-17T01:04:10.180Z,47.92
2022-10-17T01:06:37.038Z,44.28
2022-10-17T01:09:04.376Z,51.00
2022-10-17T01:12:06.684Z,49.13
2022-10-17T01:14:51.440Z,48.90
2022-10-17T01:17:39.954Z,44.67
2022-10-17T01:20:25.535Z,46.50
2022-10-17T01:23:07.273Z,49.53
2022-10-17T01:25:51.981Z,48.95
2022-10-17T01:28:27.232Z,51.42
2022-10-17T01:31:13.652Z,48.00
2022-10-17T01:33:49.616Z,46.28
2022-10-17T01:36:30.699Z,48.42
2022-10-17T01:39:17.211Z,45.60
2022-10-17T01:41:50.230Z,44.60
2022-10-17T01:47:07.914Z,44.17
2022-10-17T01:49:37.656Z,46.47
2022-10-17T01:52:12.207Z,43.00
2022-10-17T01:54:41.379Z,41.85
2022-10-17T01:57:15.033Z,44.55
2022-10-17T01:59:46.602Z,46.55
2022-10-17T02:02:15.928Z,45.88
2022-10-17T02:04:43.499Z,45.63
2022-10-17T02:07:12.474Z,48.13
2022-10-17T02:09:39.879Z,41.67
2022-10-17T02:12:51.153Z,43.22
2022-10-17T02:15:18.043Z,44.20
2022-10-17T02:18:10.209Z,44.28
2022-10-17T02:20:57.010Z,44.33
2022-10-17T02:23:53.926Z,42.08
2022-10-17T02:26:28.307Z,45.95
2022-10-17T02:29:08.032Z,47.30
2022-10-17T02:31:40.052Z,46.72
2022-10-17T02:34:16.785Z,43.88
2022-10-17T02:36:49.207Z,47.08
2022-10-17T02:39:17.052Z,49.50
2022-10-17T02:41:46.108Z,46.40
2022-10-17T02:44:13.052Z,43.80
2022-10-17T02:46:41.625Z,48.95
2022-10-17T02:49:31.648Z,41.40
2022-10-17T02:52:04.053Z,49.67
2022-10-17T02:54:50.750Z,45.92
2022-10-17T02:58:00.623Z,44.53
2022-10-17T03:00:30.017Z,44.45
2022-10-17T03:02:57.083Z,40.33
2022-10-17T03:05:29.478Z,41.15
2022-10-17T03:07:57.053Z,42.15
2022-10-17T03:10:24.042Z,41.30
2022-10-17T03:12:51.001Z,41.10
2022-10-17T03:15:17.963Z,44.67
2022-10-17T03:20:12.664Z,43.88
2022-10-17T03:22:39.657Z,41.80
2022-10-17T03:25:07.300Z,42.38
2022-10-17T03:27:34.204Z,42.92
2022-10-17T03:30:01.101Z,40.63
2022-10-17T03:32:28.001Z,40.80
2022-10-17T03:34:54.904Z,44.47
2022-10-17T03:37:21.850Z,44.88
2022-10-17T03:39:48.736Z,42.33
2022-10-17T03:42:15.625Z,43.08
2022-10-17T03:44:42.603Z,48.20
2022-10-17T03:47:11.920Z,42.95
2022-10-17T03:49:41.061Z,45.60
2022-10-17T03:52:15.078Z,49.80
2022-10-17T03:54:42.330Z,47.03
2022-10-17T03:57:09.223Z,47.25
2022-10-17T03:59:36.152Z,48.67
2022-10-17T04:02:03.113Z,53.25
2022-10-17T04:04:30.305Z,55.67
2022-10-17T04:06:57.207Z,42.33
2022-10-17T04:09:24.117Z,43.90
2022-10-17T04:11:51.007Z,44.70
2022-10-17T04:14:18.142Z,43.63
2022-10-17T04:16:45.059Z,45.85
2022-10-17T04:19:14.026Z,41.35
2022-10-17T04:21:41.042Z,44.35
2022-10-17T04:24:11.916Z,44.78
2022-10-17T04:26:38.857Z,43.67
2022-10-17T04:29:05.807Z,47.20
2022-10-17T04:31:32.702Z,49.13
2022-10-17T04:33:59.562Z,42.72
2022-10-17T04:36:26.458Z,45.08
2022-10-17T04:38:53.314Z,43.47
2022-10-17T04:41:20.355Z,46.53
2022-10-17T04:43:50.985Z,39.60
2022-10-17T04:46:18.839Z,47.80
2022-10-17T04:48:45.773Z,42.15
2022-10-17T04:51:20.629Z,41.58
2022-10-17T04:56:31.121Z,40.90
2022-10-17T04:58:59.802Z,40.22
2022-10-17T05:01:27.210Z,40.10
2022-10-17T05:03:54.318Z,39.88
2022-10-17T05:06:24.519Z,42.40
2022-10-17T05:08:51.416Z,41.75
2022-10-17T05:11:26.881Z,40.58
2022-10-17T05:13:56.680Z,48.78
2022-10-17T05:16:24.501Z,47.72
2022-10-17T05:18:53.638Z,44.00
2022-10-17T05:21:21.590Z,46.13
2022-10-17T05:23:48.509Z,50.45
2022-10-17T05:26:15.854Z,45.88
2022-10-17T05:28:42.806Z,44.72
2022-10-17T05:31:11.439Z,46.30
2022-10-17T05:33:39.234Z,54.97
2022-10-17T05:36:07.432Z,55.33
2022-10-17T05:38:34.604Z,54.08
2022-10-17T05:41:04.158Z,81.95
2022-10-17T05:43:31.805Z,58.38
2022-10-17T05:45:58.791Z,65.00
2022-10-17T05:48:25.740Z,59.33
2022-10-17T05:51:03.766Z,62.95
2022-10-17T05:53:32.569Z,52.83
2022-10-17T05:56:01.575Z,58.78
2022-10-17T06:01:16.179Z,54.20
2022-10-17T06:03:43.195Z,53.13
2022-10-17T06:06:12.494Z,54.05
2022-10-17T06:08:39.774Z,59.45
2022-10-17T06:11:54.710Z,46.28
2022-10-17T06:14:21.852Z,48.20
2022-10-17T06:16:48.732Z,50.63
2022-10-17T06:19:15.703Z,48.53
2022-10-17T06:21:42.690Z,44.88
2022-10-17T06:24:09.620Z,44.03
2022-10-17T06:26:36.561Z,44.20
2022-10-17T06:29:03.913Z,49.92
2022-10-17T06:31:31.060Z,45.22
2022-10-17T06:33:57.955Z,46.58
2022-10-17T06:36:24.959Z,44.92
2022-10-17T06:38:51.884Z,44.60
2022-10-17T06:41:19.497Z,44.15
2022-10-17T06:43:47.322Z,49.78
2022-10-17T06:46:18.765Z,48.03
2022-10-17T06:48:46.182Z,53.92
2022-10-17T06:51:13.558Z,46.40
2022-10-17T06:53:40.922Z,47.42
2022-10-17T06:56:09.566Z,45.88
2022-10-17T06:58:39.765Z,53.28
2022-10-17T07:03:41.481Z,52.22
2022-10-17T07:06:11.031Z,48.10
2022-10-17T07:08:38.739Z,55.97
2022-10-17T07:11:16.961Z,49.03
2022-10-17T07:13:44.465Z,48.03
2022-10-17T07:16:11.551Z,46.88
2022-10-17T07:18:38.873Z,46.85
2022-10-17T07:21:06.688Z,43.25
2022-10-17T07:23:36.648Z,43.95
2022-10-17T07:26:08.721Z,42.13
2022-10-17T07:28:37.422Z,48.35
2022-10-17T07:31:09.941Z,44.50
2022-10-17T07:33:37.040Z,44.03
2022-10-17T07:36:05.345Z,52.25
2022-10-17T07:38:32.553Z,46.20
2022-10-17T07:41:01.861Z,47.00
2022-10-17T07:43:29.458Z,44.50
2022-10-17T07:45:56.748Z,46.70
2022-10-17T07:48:24.872Z,46.20
2022-10-17T07:50:51.957Z,44.65
2022-10-17T07:53:19.484Z,49.90
2022-10-17T07:55:48.007Z,58.08
2022-10-17T07:58:15.495Z,67.82
2022-10-17T08:00:42.684Z,58.25
2022-10-17T08:03:10.992Z,64.10
2022-10-17T08:05:40.937Z,56.85
2022-10-17T08:08:07.919Z,70.47
2022-10-17T08:10:34.803Z,77.35
2022-10-17T08:13:02.377Z,66.82
2022-10-17T08:15:31.835Z,55.55
2022-10-17T08:17:59.659Z,54.80
2022-10-17T08:20:27.076Z,46.50
2022-10-17T08:22:55.378Z,43.78
2022-10-17T08:25:22.991Z,53.55
2022-10-17T08:27:50.273Z,64.07
2022-10-17T08:30:17.614Z,69.90
2022-10-17T08:32:44.587Z,72.40
2022-10-17T08:35:11.656Z,68.45
2022-10-17T08:37:38.652Z,86.38
2022-10-17T08:40:06.081Z,80.00
2022-10-17T08:42:42.031Z,84.35
2022-10-17T08:45:14.867Z,64.82
2022-10-17T08:47:50.335Z,44.72
2022-10-17T08:50:26.227Z,48.00
2022-10-17T08:52:58.291Z,72.20
2022-10-17T08:55:41.291Z,68.40
2022-10-17T08:58:34.214Z,46.88
2022-10-17T09:01:12.703Z,36.92
2022-10-17T09:03:43.787Z,37.83
2022-10-17T09:06:17.991Z,36.30
2022-10-17T09:09:06.907Z,32.97
2022-10-17T09:12:01.240Z,40.72
2022-10-17T09:14:38.063Z,35.50
2022-10-17T09:17:12.753Z,39.50
2022-10-17T09:20:05.743Z,36.20
2022-10-17T09:22:52.071Z,39.30
2022-10-17T09:25:22.289Z,36.20
2022-10-17T09:27:53.892Z,33.13
2022-10-17T09:30:45.574Z,40.60
2022-10-17T09:33:35.657Z,33.65
2022-10-17T09:36:19.513Z,36.05
2022-10-17T09:38:53.841Z,30.50
2022-10-17T09:44:58.202Z,39.13
2022-10-17T09:48:03.283Z,32.65
2022-10-17T09:50:34.212Z,36.22
2022-10-17T09:53:15.408Z,36.28
2022-10-17T09:55:51.775Z,31.58
2022-10-17T09:58:22.121Z,28.38
2022-10-17T10:00:50.606Z,29.60
2022-10-17T10:03:17.561Z,33.97
2022-10-17T10:05:59.444Z,34.00
2022-10-17T10:08:35.611Z,36.13
2022-10-17T10:11:06.583Z,29.33
2022-10-17T10:13:35.881Z,35.53
2022-10-17T10:16:24.422Z,29.30
2022-10-17T10:18:53.072Z,31.55
2022-10-17T10:21:22.508Z,30.95
2022-10-17T10:24:05.504Z,31.10
2022-10-17T10:26:46.140Z,29.23
2022-10-17T10:29:34.413Z,33.40
2022-10-17T10:32:21.676Z,30.50
2022-10-17T10:35:04.029Z,29.95
2022-10-17T10:37:43.675Z,36.35
2022-10-17T10:40:18.046Z,32.33
2022-10-17T10:42:50.255Z,31.33
2022-10-17T10:45:42.831Z,32.95
2022-10-17T10:48:33.923Z,34.97
2022-10-17T10:51:32.560Z,33.75
2022-10-17T10:54:06.025Z,26.67
2022-10-17T10:56:44.334Z,32.95
2022-10-17T10:59:28.414Z,29.95
2022-10-17T11:02:03.057Z,30.67
2022-10-17T11:04:35.941Z,29.73
2022-10-17T11:07:20.317Z,27.80
2022-10-17T11:10:09.492Z,30.55
2022-10-17T11:12:36.421Z,28.90
2022-10-17T11:15:15.344Z,32.45
2022-10-17T11:18:08.480Z,29.85
2022-10-17T11:21:00.456Z,30.17
2022-10-17T11:23:38.702Z,32.20
2022-10-17T11:26:13.994Z,34.22
2022-10-17T11:28:40.996Z,33.00
2022-10-17T11:31:12.855Z,27.15
2022-10-17T11:33:51.997Z,27.75
2022-10-17T11:36:22.344Z,31.80
2022-10-17T11:38:57.844Z,27.38
2022-10-17T11:41:41.729Z,33.05
2022-10-17T11:44:25.258Z,28.55
2022-10-17T11:47:04.476Z,27.23
2022-10-17T11:49:40.700Z,24.98
2022-10-17T11:52:37.806Z,24.10
2022-10-17T11:55:23.858Z,26.13
2022-10-17T11:57:56.895Z,26.38
2022-10-17T12:00:52.973Z,26.52
2022-10-17T12:03:26.296Z,25.35
2022-10-17T12:06:07.207Z,23.00
2022-10-17T12:08:49.287Z,32.00
2022-10-17T12:11:21.670Z,28.33
2022-10-17T12:13:48.562Z,28.55
2022-10-17T12:16:21.222Z,26.70
2022-10-17T12:18:52.147Z,26.52
2022-10-17T12:21:19.096Z,27.77
2022-10-17T12:23:55.988Z,28.58
2022-10-17T12:26:28.102Z,25.15
2022-10-17T12:28:56.555Z,26.88
2022-10-17T12:31:29.714Z,22.55
2022-10-17T12:34:05.223Z,27.83
2022-10-17T12:36:32.086Z,23.88
2022-10-17T12:39:02.100Z,23.88
2022-10-17T12:41:41.525Z,23.35
2022-10-17T12:44:14.927Z,22.10
2022-10-17T12:46:52.816Z,23.15
2022-10-17T12:49:54.418Z,23.77
2022-10-17T12:52:27.046Z,22.88
2022-10-17T12:55:11.421Z,23.17
2022-10-17T12:57:41.537Z,22.40
2022-10-17T13:00:23.659Z,24.13
2022-10-17T13:02:54.372Z,23.35
2022-10-17T13:05:27.447Z,19.70
2022-10-17T13:07:56.022Z,25.63
2022-10-17T13:10:28.288Z,21.92
2022-10-17T13:13:12.065Z,23.77
2022-10-17T13:15:39.023Z,25.73
2022-10-17T13:18:06.435Z,21.35
2022-10-17T13:20:33.571Z,23.95
2022-10-17T13:23:00.842Z,20.63
2022-10-17T13:25:28.688Z,20.15
2022-10-17T13:28:13.495Z,22.65
2022-10-17T13:30:45.796Z,23.27
2022-10-17T13:33:32.883Z,20.60
2022-10-17T13:36:01.659Z,19.70
2022-10-17T13:38:32.697Z,22.92
2022-10-17T13:41:30.022Z,22.55
2022-10-17T13:43:48.436Z,29.55
2022-10-17T13:46:37.440Z,21.15
2022-10-17T13:49:20.061Z,17.40
2022-10-17T13:51:54.015Z,20.00
2022-10-17T13:54:35.198Z,21.17
2022-10-17T13:57:03.531Z,21.92
2022-10-17T13:59:41.233Z,19.08
2022-10-17T14:02:16.349Z,19.50
2022-10-17T14:05:16.122Z,21.52
2022-10-17T14:08:16.792Z,22.52
2022-10-17T14:10:45.325Z,23.65
2022-10-17T14:13:22.824Z,19.38
2022-10-17T14:15:50.141Z,20.38
2022-10-17T14:18:34.941Z,19.10
2022-10-17T14:23:53.345Z,23.17
2022-10-17T14:26:23.072Z,21.77
2022-10-17T14:29:18.198Z,24.70
2022-10-17T14:31:45.065Z,23.10
2022-10-17T14:34:28.084Z,22.42
2022-10-17T14:36:55.456Z,23.83
2022-10-17T14:39:24.967Z,28.08
2022-10-17T14:41:53.111Z,23.50
2022-10-17T14:44:32.754Z,21.67
2022-10-17T14:47:30.357Z,22.42
2022-10-17T14:49:52.396Z,28.20
2022-10-17T14:52:19.365Z,24.55
2022-10-17T14:54:49.908Z,27.83
2022-10-17T14:57:32.037Z,25.75
2022-10-17T14:59:59.417Z,22.75
2022-10-17T15:02:29.110Z,23.52
2022-10-17T15:04:56.470Z,26.75
2022-10-17T15:07:24.174Z,25.67
2022-10-17T15:09:52.999Z,25.23
2022-10-17T15:12:22.371Z,34.22
2022-10-17T15:14:50.770Z,26.50
2022-10-17T15:17:24.057Z,34.08
2022-10-17T15:19:51.015Z,36.50
2022-10-17T15:22:18.403Z,28.95
2022-10-17T15:24:46.355Z,29.75
2022-10-17T15:27:22.217Z,31.10
2022-10-17T15:29:50.555Z,28.27
2022-10-17T15:32:17.630Z,36.13
2022-10-17T15:34:44.756Z,38.05
2022-10-17T15:37:22.336Z,32.97
2022-10-17T15:39:54.804Z,31.83
2022-10-17T15:42:26.790Z,28.30
2022-10-17T15:44:54.038Z,29.57
2022-10-17T15:47:35.483Z,33.75
2022-10-17T15:50:02.620Z,33.80
2022-10-17T15:52:29.657Z,30.50
2022-10-17T15:54:58.510Z,36.55
2022-10-17T15:57:31.383Z,40.13
2022-10-17T15:59:59.970Z,43.05
2022-10-17T16:02:27.401Z,36.15
2022-10-17T16:04:54.404Z,38.80
2022-10-17T16:07:21.906Z,45.83
2022-10-17T16:09:48.927Z,42.08
2022-10-17T16:12:28.364Z,47.28
2022-10-17T16:14:55.606Z,39.85
2022-10-17T16:17:22.502Z,46.08
2022-10-17T16:19:50.082Z,40.67
2022-10-17T16:22:33.271Z,49.53
2022-10-17T16:25:07.849Z,53.90
2022-10-17T16:27:35.438Z,59.38
2022-10-17T16:30:03.755Z,50.67
2022-10-17T16:32:31.131Z,50.15
2022-10-17T16:34:59.997Z,49.70
2022-10-17T16:37:27.264Z,58.72
2022-10-17T16:39:54.382Z,54.78
2022-10-17T16:42:21.412Z,55.78
2022-10-17T16:44:49.570Z,48.53
2022-10-17T16:47:18.199Z,51.25
2022-10-17T16:49:45.586Z,50.75
2022-10-17T16:52:13.005Z,51.28
2022-10-17T16:54:39.986Z,45.45
2022-10-17T16:57:06.848Z,45.75
2022-10-17T16:59:33.790Z,39.38
2022-10-17T17:02:00.689Z,42.60
2022-10-17T17:04:27.903Z,53.90
2022-10-17T17:06:54.838Z,45.25
2022-10-17T17:09:21.750Z,44.53
2022-10-17T17:11:49.225Z,48.55
2022-10-17T17:14:16.224Z,46.75
2022-10-17T17:16:43.827Z,50.00
2022-10-17T17:19:13.660Z,49.92
2022-10-17T17:21:42.006Z,50.78
2022-10-17T17:24:09.294Z,45.95
2022-10-17T17:26:36.307Z,46.25
2022-10-17T17:29:03.645Z,47.83
2022-10-17T17:31:33.886Z,42.45
2022-10-17T17:34:01.818Z,44.53
2022-10-17T17:36:35.535Z,47.33
2022-10-17T17:39:11.809Z,44.55
2022-10-17T17:41:40.227Z,52.60
2022-10-17T17:44:11.219Z,45.10
2022-10-17T17:46:43.724Z,49.92
2022-10-17T17:49:11.625Z,45.42
2022-10-17T17:51:39.176Z,47.38
2022-10-17T17:54:11.521Z,52.42
2022-10-17T17:56:38.943Z,50.25
2022-10-17T17:59:05.874Z,50.15
2022-10-17T18:01:38.817Z,56.55
2022-10-17T18:04:08.815Z,53.72
2022-10-17T18:06:37.461Z,55.85
2022-10-17T18:09:06.131Z,60.97
2022-10-17T18:11:33.547Z,56.97
2022-10-17T18:14:03.003Z,60.70
2022-10-17T18:16:31.751Z,56.63
2022-10-17T18:19:04.094Z,59.47
2022-10-17T18:21:34.011Z,65.85
2022-10-17T18:24:01.062Z,65.28
2022-10-17T18:26:28.566Z,60.03
2022-10-17T18:28:55.509Z,55.17
2022-10-17T18:31:28.293Z,58.72
2022-10-17T18:36:24.053Z,55.53
2022-10-17T18:38:51.022Z,59.80
2022-10-17T18:41:20.200Z,67.35
2022-10-17T18:43:48.917Z,62.53
2022-10-17T18:46:18.936Z,62.22
2022-10-17T18:48:47.190Z,62.80
2022-10-17T18:51:15.860Z,87.05
2022-10-17T18:53:45.431Z,81.75
2022-10-17T18:56:13.469Z,73.00
2022-10-17T18:58:41.511Z,64.57
2022-10-17T19:01:11.868Z,62.42
2022-10-17T19:03:38.793Z,66.30
2022-10-17T19:06:07.862Z,68.03
2022-10-17T19:08:35.697Z,61.20
2022-10-17T19:11:24.170Z,62.55
2022-10-17T19:13:52.221Z,65.18
2022-10-17T19:16:30.753Z,58.90
2022-10-17T19:19:04.457Z,54.17
2022-10-17T19:21:32.192Z,59.72
2022-10-17T19:24:01.628Z,55.08
2022-10-17T19:26:31.316Z,57.35
2022-10-17T19:29:00.543Z,61.25
2022-10-17T19:31:29.684Z,55.15
2022-10-17T19:33:57.727Z,53.45
2022-10-17T19:36:30.559Z,51.22
2022-10-17T19:39:03.349Z,54.78
2022-10-17T19:41:30.738Z,47.22
2022-10-17T19:43:59.611Z,53.90
2022-10-17T19:46:29.158Z,43.95
2022-10-17T19:48:56.934Z,43.80
2022-10-17T19:51:25.195Z,45.90
2022-10-17T19:53:53.948Z,47.55
2022-10-17T19:56:22.064Z,46.40
2022-10-17T19:58:50.215Z,48.28
2022-10-17T20:01:19.597Z,47.53
2022-10-17T20:03:46.971Z,82.43
2022-10-17T20:06:14.563Z,54.03
2022-10-17T20:08:42.990Z,53.35
2022-10-17T20:11:13.182Z,49.45
2022-10-17T20:13:40.881Z,52.75
2022-10-17T20:16:11.244Z,48.22
2022-10-17T20:18:38.443Z,47.65
2022-10-17T20:21:08.884Z,49.00
2022-10-17T20:23:36.403Z,51.05
2022-10-17T20:26:25.325Z,48.17
2022-10-17T20:28:53.416Z,48.30
2022-10-17T20:31:20.891Z,48.65
2022-10-17T20:33:47.843Z,47.50
2022-10-17T20:36:15.196Z,47.58
2022-10-17T20:38:42.204Z,49.20
2022-10-17T20:41:10.237Z,50.58
2022-10-17T20:43:37.585Z,48.85
2022-10-17T20:46:22.946Z,51.42
2022-10-17T20:48:54.870Z,52.38
2022-10-17T20:51:21.949Z,49.83
2022-10-17T20:53:49.202Z,45.28
2022-10-17T20:56:29.147Z,45.88
2022-10-17T20:59:00.754Z,41.10
2022-10-17T21:01:29.625Z,51.63
2022-10-17T21:03:59.703Z,48.78
2022-10-17T21:08:56.668Z,49.45
2022-10-17T21:11:28.172Z,44.47
2022-10-17T21:14:01.573Z,46.28
2022-10-17T21:16:29.954Z,47.20
2022-10-17T21:18:57.891Z,37.33
2022-10-17T21:21:30.265Z,50.03
2022-10-17T21:24:00.836Z,41.63
2022-10-17T21:26:28.382Z,44.47
2022-10-17T21:28:55.478Z,43.35
2022-10-17T21:31:24.873Z,40.70
2022-10-17T21:34:05.350Z,45.30
2022-10-17T21:36:32.295Z,46.00
2022-10-17T21:38:59.170Z,41.03
2022-10-17T21:41:28.098Z,43.92
2022-10-17T21:44:06.169Z,45.75
2022-10-17T21:46:33.905Z,48.58
2022-10-17T21:49:01.514Z,44.78
2022-10-17T21:51:29.319Z,41.97
2022-10-17T21:53:57.624Z,40.25
2022-10-17T21:56:33.590Z,39.38
2022-10-17T21:59:00.996Z,46.58
2022-10-17T22:01:33.922Z,40.47
2022-10-17T22:06:39.796Z,38.50
2022-10-17T22:09:16.876Z,42.78
2022-10-17T22:11:47.214Z,40.47
2022-10-17T22:14:16.903Z,40.55
2022-10-17T22:16:47.388Z,43.67
2022-10-17T22:19:17.694Z,38.67
2022-10-17T22:21:44.827Z,39.17
2022-10-17T22:24:14.555Z,41.53
2022-10-17T22:26:42.511Z,40.03
2022-10-17T22:29:10.363Z,41.70
2022-10-17T22:31:38.513Z,41.72
2022-10-17T22:34:07.079Z,43.08
2022-10-17T22:36:34.575Z,47.90
2022-10-17T22:39:01.926Z,51.50
2022-10-17T22:41:29.003Z,46.65
2022-10-17T22:43:56.118Z,46.10
2022-10-17T22:46:23.219Z,42.13
2022-10-17T22:48:50.111Z,40.97
2022-10-17T22:51:17.553Z,42.47
2022-10-17T22:53:44.628Z,41.58
2022-10-17T22:56:14.410Z,39.72
2022-10-17T22:58:41.577Z,38.60
2022-10-17T23:01:13.404Z,41.40
2022-10-17T23:03:40.371Z,38.17
2022-10-17T23:06:07.554Z,41.80
2022-10-17T23:08:34.956Z,44.80
2022-10-17T23:11:01.947Z,40.38
2022-10-17T23:13:28.907Z,36.20
2022-10-17T23:15:57.346Z,41.75
2022-10-17T23:18:25.926Z,38.20
2022-10-17T23:20:53.350Z,40.30
2022-10-17T23:23:21.040Z,39.03
2022-10-17T23:25:48.075Z,37.55
2022-10-17T23:28:15.059Z,38.17
2022-10-17T23:30:42.282Z,38.10
2022-10-17T23:33:12.132Z,40.63
2022-10-17T23:35:39.114Z,38.60
2022-10-17T23:38:06.078Z,38.95
2022-10-17T23:40:32.968Z,45.35
2022-10-17T23:42:59.887Z,43.40
2022-10-17T23:45:26.919Z,37.00
2022-10-17T23:47:53.835Z,39.58
2022-10-17T23:50:20.927Z,41.03
2022-10-17T23:52:47.880Z,41.08
2022-10-17T23:55:14.853Z,39.92
2022-10-17T23:57:41.741Z,37.30
